Aviation Digital Data Service (ADDS)

Output produced by METARs form (0455 UTC 29 November 2014)
found at http://www.aviationweather.gov/adds/metars/
 
KLNS 290353Z AUTO 29003KT 10SM CLR M04/M09 A3027 RMK AO2 SLP254 T10441094
KLNS 290253Z AUTO 00000KT 10SM SCT120 M03/M09 A3026 RMK AO2 SLP252 T10331094 50002
KLNS 290153Z 26004KT 10SM CLR M03/M10 A3027 RMK AO2 SLP255 T10331100
KLNS 290053Z 29004KT 10SM CLR M03/M09 A3026 RMK AO2 SLP252 T10281094
KLNS 282353Z 00000KT 10SM CLR M02/M09 A3025 RMK AO2 SLP250 T10171094 10011 21028 51006
KLNS 282253Z 28003KT 10SM CLR M02/M09 A3025 RMK AO2 SLP249 T10171094
KLNS 282153Z 31005KT 10SM CLR M01/M08 A3024 RMK AO2 SLP246 T10111083
KLNS 282053Z 30008KT 10SM FEW050 00/M08 A3023 RMK AO2 SLP242 T00001083 55000
KLNS 281953Z 30013KT 10SM BKN050 01/M08 A3023 RMK AO2 SLP241 T00111078
KLNS 281853Z 29011KT 10SM FEW050 01/M08 A3022 RMK AO2 SLP238 T00111083
KLNS 281753Z 31012KT 10SM BKN050 01/M07 A3023 RMK AO2 SLP242 T00061072 10011 21017 56007
KLNS 281653Z 31015KT 10SM BKN048 01/M08 A3024 RMK AO2 SLP242 T00061078
KLNS 281553Z 30012KT 10SM BKN045 OVC050 00/M07 A3025 RMK AO2 SLP249 T00001072
KLNS 281453Z 31013G18KT 10SM FEW043 01/M07 A3026 RMK AO2 SLP249 T00061072 51019
KLNS 281353Z 29009KT 10SM CLR 00/M06 A3024 RMK AO2 SLP246 T00001061
KLNS 281253Z 29006KT 10SM CLR M02/M06 A3023 RMK AO2 SLP241 T10171061
KLNS 281153Z 30009KT 10SM CLR M02/M07 A3020 RMK AO2 SLP231 T10171067 10006 21028 53019
KLNS 281053Z 27007KT 10SM CLR M02/M07 A3017 RMK AO2 SLP219 T10221067
KLNS 280953Z 28007KT 10SM CLR M02/M06 A3015 RMK AO2 SLP214 T10221061
KLNS 280853Z 28007KT 10SM FEW039 M02/M06 A3014 RMK AO2 SLP211 T10171061 51010
KLNS 280753Z 25004KT 10SM CLR M01/M06 A3013 RMK AO2 SLP208 T10111061
KLNS 280653Z 29011KT 10SM CLR M01/M05 A3013 RMK AO2 SLP206 T10061050
KLNS 280553Z 28009KT 10SM SCT033 BKN042 OVC090 00/M03 A3011 RMK AO2 SLP201 T00001028 10000 21022 53001
KLNS 280453Z 28006KT 6SM BR BKN070 OVC090 M01/M02 A3011 RMK AO2 SLP199 T10061022 400221022
KLNS 280353Z 30005KT 6SM BR FEW042 SCT055 OVC085 M02/M03 A3011 RMK AO2 SLP200 T10171028
KLNS 280253Z 29004KT 7SM OVC080 M02/M03 A3011 RMK AO2 SLP200 T10171028 53007
KLNS 280153Z 29004KT 9SM CLR M02/M03 A3011 RMK AO2 SLP200 T10171033
KLNS 280053Z 26003KT 10SM SCT070 M01/M03 A3009 RMK AO2 SLP192 T10061028
KLNS 272353Z 27004KT 10SM FEW070 00/M03 A3009 RMK AO2 SLP193 T00001028 10022 20000 53013
KLNS 272253Z 30005KT 10SM SCT037 BKN048 OVC060 01/M03 A3008 RMK AO2 SLP188 T00061028
KLNS 272153Z 33004KT 10SM SCT065 01/M03 A3006 RMK AO2 SLP182 T00111028
KLNS 272053Z 32009KT 10SM OVC065 02/M03 A3005 RMK AO2 SLP179 T00221033 53010
KLNS 271953Z 29006KT 10SM FEW021 BKN060 02/M02 A3004 RMK AO2 SLP175 T00221022
KLNS 271853Z 31006KT 10SM FEW042 OVC060 02/M03 A3003 RMK AO2 SLP172 T00221028
KLNS 271753Z 31008KT 10SM FEW027 OVC060 02/M03 A3002 RMK AO2 SLP169 T00221028 10022 20000 58006